Time;durP1;ratioP1;P1;durP2;ratioP2;P2;SDS_P1;SDS_P2;PMS_P1;PMS_P2;Temp;Humidity;BMP_temperature;BMP_pressure;BME280_temperature;BME280_humidity;BME280_pressure;Samples;Min_cycle;Max_cycle;Signal;HPM_P1;HPM_P2
2022/05/22 00:01:56;;;;;;;;;;;13.30;99.90;;;;;;5012683;28;20049;-56
2022/05/22 00:04:24;;;;;;;4.38;0.90;;;13.30;99.90;;;;;;5013759;28;19921;-56
2022/05/22 00:06:52;;;;;;;3.38;0.95;;;13.30;99.90;;;;;;5013889;28;20402;-56
2022/05/22 00:09:19;;;;;;;3.88;0.98;;;13.30;99.90;;;;;;5013327;28;20050;-56
2022/05/22 00:11:47;;;;;;;6.55;1.05;;;13.30;99.90;;;;;;5004581;28;20372;-56
2022/05/22 00:14:16;;;;;;;4.65;0.98;;;13.40;99.90;;;;;;4996520;28;20065;-56
2022/05/22 00:16:46;;;;;;;5.63;1.30;;;13.40;99.90;;;;;;5013381;28;20528;-57
2022/05/22 00:19:19;;;;;;;3.28;0.80;;;13.40;99.90;;;;;;5012108;28;20065;-56
2022/05/22 00:21:48;;;;;;;6.95;0.88;;;13.40;99.90;;;;;;5013640;28;20052;-57
2022/05/22 00:24:18;;;;;;;3.40;0.70;;;13.40;99.90;;;;;;5012118;28;20054;-57
2022/05/22 00:26:47;;;;;;;2.05;0.65;;;13.40;99.90;;;;;;5003840;28;20118;-56
2022/05/22 00:29:15;;;;;;;5.50;1.00;;;13.40;99.90;;;;;;5008728;28;20406;-56
2022/05/22 00:31:44;;;;;;;2.22;0.80;;;13.40;99.90;;;;;;5013248;28;20065;-56
2022/05/22 00:34:12;;;;;;;2.88;0.90;;;13.30;99.90;;;;;;4995412;28;20493;-56
2022/05/22 00:36:41;;;;;;;4.07;0.90;;;13.40;99.90;;;;;;5013229;28;20053;-56
2022/05/22 00:39:09;;;;;;;4.57;1.00;;;13.30;99.90;;;;;;5013030;28;20046;-56
2022/05/22 00:41:38;;;;;;;2.55;0.93;;;13.30;99.90;;;;;;5005284;28;20038;-57
2022/05/22 00:44:07;;;;;;;7.20;1.20;;;13.30;99.90;;;;;;4993665;28;20050;-56
2022/05/22 00:46:35;;;;;;;3.90;0.80;;;13.30;99.90;;;;;;5013242;28;20061;-56
2022/05/22 00:49:06;;;;;;;7.57;1.13;;;13.20;99.90;;;;;;5011841;28;20524;-56
2022/05/22 00:51:56;;;;;;;5.13;1.00;;;13.20;99.90;;;;;;5013110;28;20061;-56
2022/05/22 00:54:36;;;;;;;1.58;0.55;;;13.20;99.90;;;;;;5012497;28;20430;-56
2022/05/22 00:57:11;;;;;;;5.43;0.90;;;13.20;99.90;;;;;;5003045;28;20065;-56
2022/05/22 00:59:44;;;;;;;6.88;1.10;;;13.10;99.90;;;;;;5010147;28;20046;-56
2022/05/22 01:02:14;;;;;;;3.20;0.90;;;13.10;99.90;;;;;;5009529;28;20048;-56
2022/05/22 01:04:45;;;;;;;4.65;1.00;;;13.00;99.90;;;;;;5007849;28;20046;-57
2022/05/22 01:07:13;;;;;;;4.20;1.05;;;13.00;99.90;;;;;;5009573;28;20053;-57
2022/05/22 01:09:41;;;;;;;3.42;0.90;;;12.90;99.90;;;;;;5012181;28;20053;-56
2022/05/22 01:12:18;;;;;;;9.02;1.10;;;12.90;99.90;;;;;;5002946;28;20043;-57
2022/05/22 01:14:51;;;;;;;2.75;1.15;;;12.90;99.90;;;;;;4998626;28;20053;-56
2022/05/22 01:17:19;;;;;;;2.67;0.80;;;12.80;99.90;;;;;;4995117;28;20057;-56
2022/05/22 01:19:56;;;;;;;3.83;0.88;;;12.80;99.90;;;;;;5010959;28;20057;-56
2022/05/22 01:22:26;;;;;;;3.88;0.90;;;12.80;99.90;;;;;;5011180;28;20057;-56
2022/05/22 01:24:55;;;;;;;3.10;0.68;;;12.90;99.90;;;;;;5011066;28;20053;-56
2022/05/22 01:27:25;;;;;;;8.15;1.02;;;12.90;99.90;;;;;;5006476;28;20038;-57
2022/05/22 01:30:27;;;;;;;4.80;0.70;;;12.90;99.90;;;;;;4990268;28;20062;-55
2022/05/22 01:33:03;;;;;;;1.50;1.13;;;12.90;99.90;;;;;;4992885;28;20039;-57
2022/05/22 01:35:32;;;;;;;2.53;0.68;;;12.80;99.90;;;;;;4991736;28;20407;-57
2022/05/22 01:38:04;;;;;;;4.20;0.80;;;12.90;99.90;;;;;;4981587;28;20069;-57
2022/05/22 01:40:35;;;;;;;4.65;0.80;;;12.80;99.90;;;;;;5012454;28;20049;-57
2022/05/22 01:43:04;;;;;;;5.55;0.95;;;12.90;99.90;;;;;;4998834;28;20406;-56
2022/05/22 01:45:34;;;;;;;1.05;0.60;;;12.90;99.90;;;;;;4995271;28;20061;-57
2022/05/22 01:48:03;;;;;;;5.25;1.10;;;12.80;99.90;;;;;;5012187;28;20061;-57
2022/05/22 01:50:44;;;;;;;4.93;1.30;;;12.80;99.90;;;;;;5012266;28;20053;-57
2022/05/22 01:53:13;;;;;;;;;;;12.80;99.90;;;;;;5012760;28;20037;-57
2022/05/22 01:55:42;;;;;;;3.05;0.95;;;12.80;99.90;;;;;;5012243;28;19921;-57
2022/05/22 01:58:10;;;;;;;3.70;0.70;;;12.80;99.90;;;;;;5011489;28;20053;-57
2022/05/22 02:00:41;;;;;;;1.70;0.70;;;12.80;99.90;;;;;;4995636;28;20053;-57
2022/05/22 02:03:09;;;;;;;3.75;0.70;;;12.80;99.90;;;;;;4979716;28;20053;-57
2022/05/22 02:05:37;;;;;;;6.47;1.23;;;12.80;99.90;;;;;;5011255;28;20436;-57
2022/05/22 02:08:19;;;;;;;5.47;1.20;;;12.80;99.90;;;;;;5011815;28;20058;-57
2022/05/22 02:10:59;;;;;;;5.07;0.70;;;12.80;99.90;;;;;;5011696;28;20057;-58
2022/05/22 02:13:37;;;;;;;3.88;0.80;;;12.80;99.90;;;;;;5011663;28;20046;-57
2022/05/22 02:16:08;;;;;;;5.65;0.85;;;12.80;99.90;;;;;;5011882;28;20050;-57
2022/05/22 02:18:35;;;;;;;4.53;0.90;;;12.80;99.90;;;;;;5012012;28;20068;-56
2022/05/22 02:21:05;;;;;;;5.07;0.82;;;12.80;99.90;;;;;;4995314;28;20050;-56
2022/05/22 02:23:35;;;;;;;2.78;0.70;;;12.70;99.90;;;;;;4995437;28;20122;-56
2022/05/22 02:26:07;;;;;;;5.15;1.02;;;12.80;99.90;;;;;;5011746;28;20478;-56
2022/05/22 02:28:35;;;;;;;7.40;1.50;;;12.70;99.90;;;;;;5011620;28;20046;-56
2022/05/22 02:31:03;;;;;;;5.07;0.80;;;12.70;99.90;;;;;;5011661;28;20057;-56
2022/05/22 02:33:32;;;;;;;2.58;0.70;;;12.70;99.90;;;;;;5011377;28;20053;-56
2022/05/22 02:36:08;;;;;;;3.58;1.00;;;12.70;99.90;;;;;;5012536;28;20034;-56
2022/05/22 02:38:37;;;;;;;4.07;0.88;;;12.60;99.90;;;;;;4995409;28;20381;-57
2022/05/22 02:41:15;;;;;;;5.35;1.20;;;12.60;99.90;;;;;;5011216;28;20045;-56
2022/05/22 02:43:48;;;;;;;2.25;0.90;;;12.60;99.90;;;;;;5011388;28;20068;-57
2022/05/22 02:46:18;;;;;;;3.58;1.00;;;12.60;99.90;;;;;;5011311;28;20046;-56
2022/05/22 02:48:49;;;;;;;6.32;1.13;;;12.60;99.90;;;;;;5011431;28;20046;-56
2022/05/22 02:51:20;;;;;;;4.40;1.00;;;12.60;99.90;;;;;;5011251;28;20046;-57
2022/05/22 02:53:49;;;;;;;2.95;1.02;;;12.50;99.90;;;;;;5011145;28;20050;-57
2022/05/22 02:56:35;;;;;;;6.22;0.85;;;12.50;99.90;;;;;;5012289;28;20045;-56
2022/05/22 02:59:22;;;;;;;2.17;0.70;;;12.50;99.90;;;;;;5011894;28;20062;-58
2022/05/22 03:02:10;;;;;;;5.18;1.27;;;12.50;99.90;;;;;;5010775;28;20054;-57
2022/05/22 03:04:38;;;;;;;0.80;0.60;;;12.50;99.90;;;;;;5010813;28;20042;-57
2022/05/22 03:07:12;;;;;;;4.88;1.10;;;12.50;99.90;;;;;;5010982;28;20401;-57
2022/05/22 03:09:42;;;;;;;3.92;0.85;;;12.50;99.90;;;;;;5010839;28;20042;-57
2022/05/22 03:12:21;;;;;;;3.90;0.85;;;12.40;99.90;;;;;;5012123;28;20045;-57
2022/05/22 03:14:55;;;;;;;4.18;0.70;;;12.50;99.90;;;;;;5010743;28;20399;-57
2022/05/22 03:17:23;;;;;;;8.35;1.30;;;12.40;99.90;;;;;;5009933;28;20049;-57
2022/05/22 03:19:59;;;;;;;4.00;0.80;;;12.40;99.90;;;;;;5010859;28;20056;-57
2022/05/22 03:22:28;;;;;;;4.60;0.98;;;12.40;99.90;;;;;;5010288;28;20514;-58
2022/05/22 03:24:59;;;;;;;4.93;1.20;;;12.30;99.90;;;;;;5010606;28;20049;-57
2022/05/22 03:27:29;;;;;;;2.22;0.70;;;12.30;99.90;;;;;;4994489;28;20050;-57
2022/05/22 03:29:57;;;;;;;5.18;0.82;;;12.30;99.90;;;;;;5010634;28;20061;-57
2022/05/22 03:32:25;;;;;;;4.15;0.77;;;12.30;99.90;;;;;;4978292;28;20069;-58
2022/05/22 03:34:56;;;;;;;5.60;1.30;;;12.20;99.90;;;;;;5010703;28;20046;-57
2022/05/22 03:37:25;;;;;;;5.10;0.98;;;12.20;99.90;;;;;;5010516;28;20052;-57
2022/05/22 03:39:55;;;;;;;;;;;12.20;99.90;;;;;;4995171;28;20041;-57
2022/05/22 03:42:24;;;;;;;7.28;1.30;;;12.20;99.90;;;;;;5010650;28;20281;-57
2022/05/22 03:44:52;;;;;;;4.05;1.27;;;12.20;99.90;;;;;;5010442;28;20407;-57
2022/05/22 03:47:20;;;;;;;3.58;1.50;;;12.20;99.90;;;;;;5010555;28;20529;-57
2022/05/22 03:50:12;;;;;;;5.28;1.08;;;12.20;99.90;;;;;;4999968;28;20050;-58
2022/05/22 03:52:43;;;;;;;7.53;1.10;;;12.20;99.90;;;;;;5010535;28;20038;-57
2022/05/22 03:55:24;;;;;;;7.07;1.25;;;12.20;99.90;;;;;;4993970;28;20054;-56
2022/05/22 03:57:52;;;;;;;6.25;1.08;;;12.20;99.90;;;;;;4994028;28;20057;-57
2022/05/22 04:00:23;;;;;;;7.50;1.25;;;12.20;99.90;;;;;;5010465;28;20046;-57
2022/05/22 04:02:53;;;;;;;4.03;0.90;;;12.20;99.90;;;;;;5010045;28;20056;-57
2022/05/22 04:05:21;;;;;;;5.40;1.05;;;12.20;99.90;;;;;;4994322;28;20034;-57
2022/05/22 04:07:50;;;;;;;6.20;0.90;;;12.20;99.90;;;;;;4993962;28;20063;-57
2022/05/22 04:10:27;;;;;;;2.80;0.50;;;12.20;99.90;;;;;;5010177;28;20062;-57
2022/05/22 04:12:55;;;;;;;2.30;0.82;;;12.20;99.90;;;;;;5011516;28;20053;-57
2022/05/22 04:15:23;;;;;;;4.20;0.60;;;12.30;99.90;;;;;;5010289;28;20060;-57
2022/05/22 04:17:54;;;;;;;1.77;0.52;;;12.30;99.90;;;;;;5011368;28;20038;-57
2022/05/22 04:20:25;;;;;;;3.17;0.80;;;12.30;99.90;;;;;;5010221;28;20050;-57
2022/05/22 04:25:59;;;;;;;4.03;1.15;;;12.40;99.90;;;;;;5009946;28;20049;-57
2022/05/22 04:28:27;;;;;;;;;;;12.40;99.90;;;;;;5012135;28;20046;-56
2022/05/22 04:31:05;;;;;;;2.50;0.70;;;12.40;99.90;;;;;;5013956;28;19921;-57
2022/05/22 04:33:38;;;;;;;2.10;0.90;;;12.40;99.90;;;;;;4998476;28;20057;-56
2022/05/22 04:36:06;;;;;;;3.63;0.88;;;12.30;99.90;;;;;;5013697;28;20042;-57
2022/05/22 04:38:34;;;;;;;1.83;0.73;;;12.30;99.90;;;;;;5013555;28;20045;-57
2022/05/22 04:41:02;;;;;;;3.03;0.77;;;12.40;99.90;;;;;;5013680;28;20512;-57
2022/05/22 04:43:31;;;;;;;4.15;1.00;;;12.40;99.90;;;;;;5029976;28;20651;-56
2022/05/22 04:46:01;;;;;;;2.63;0.80;;;12.40;99.90;;;;;;5046743;28;20046;-57
2022/05/22 04:48:28;;;;;;;5.30;1.10;;;12.40;99.90;;;;;;4996625;28;20057;-56
2022/05/22 04:51:03;;;;;;;2.33;0.80;;;12.40;99.90;;;;;;4990652;28;20057;-57
2022/05/22 04:53:39;;;;;;;4.30;1.33;;;12.40;99.90;;;;;;4990647;28;20050;-56
2022/05/22 04:56:12;;;;;;;4.93;1.15;;;12.40;99.90;;;;;;4974315;28;20062;-56
2022/05/22 04:58:46;;;;;;;2.25;0.80;;;12.40;99.90;;;;;;5004656;28;20049;-57
2022/05/22 05:01:16;;;;;;;8.70;1.20;;;12.40;99.90;;;;;;4994134;28;20038;-57
2022/05/22 05:04:01;;;;;;;3.03;0.80;;;12.40;99.90;;;;;;4989674;28;20092;-57
2022/05/22 05:06:32;;;;;;;3.90;1.95;;;12.40;99.90;;;;;;4972722;28;20046;-57
2022/05/22 05:09:02;;;;;;;2.90;0.90;;;12.40;99.90;;;;;;5005063;28;20041;-57
2022/05/22 05:11:33;;;;;;;3.28;0.93;;;12.40;99.90;;;;;;4970795;28;20043;-56
2022/05/22 05:14:04;;;;;;;5.63;1.10;;;12.40;99.90;;;;;;4972127;28;20486;-57
2022/05/22 05:16:32;;;;;;;4.47;1.08;;;12.50;99.90;;;;;;4970325;28;20050;-57
2022/05/22 05:19:08;;;;;;;5.22;0.93;;;12.50;99.90;;;;;;4941285;28;20055;-57
2022/05/22 05:21:40;;;;;;;2.75;0.75;;;12.50;99.90;;;;;;4949800;29;20054;-57
2022/05/22 05:24:10;;;;;;;7.30;1.48;;;12.50;99.90;;;;;;4962698;28;20899;-58
2022/05/22 05:26:39;;;;;;;8.45;1.15;;;12.50;99.90;;;;;;4970332;28;20447;-59
2022/05/22 05:29:13;;;;;;;4.65;1.20;;;12.50;99.90;;;;;;4972363;28;20054;-57
2022/05/22 05:31:43;;;;;;;;;;;12.50;99.90;;;;;;4972505;28;20042;-57
2022/05/22 05:34:13;;;;;;;4.13;1.00;;;12.50;99.90;;;;;;4970876;28;20298;-56
2022/05/22 05:36:45;;;;;;;4.20;1.00;;;12.50;99.90;;;;;;4956304;28;20042;-57
2022/05/22 05:39:27;;;;;;;1.92;1.15;;;12.50;99.90;;;;;;4970957;28;20507;-57
2022/05/22 05:42:06;;;;;;;3.63;1.00;;;12.50;99.90;;;;;;4969169;28;20054;-57
2022/05/22 05:44:36;;;;;;;3.00;1.15;;;12.50;99.90;;;;;;4968087;28;20055;-57
2022/05/22 05:47:27;;;;;;;3.88;1.15;;;12.60;99.90;;;;;;4967602;28;20054;-56
2022/05/22 05:50:08;;;;;;;4.50;1.17;;;12.60;99.90;;;;;;4952297;29;20511;-57
2022/05/22 05:52:58;;;;;;;9.23;1.20;;;12.60;99.90;;;;;;4955456;28;20215;-57
2022/05/22 05:55:44;;;;;;;3.72;1.00;;;12.60;99.90;;;;;;4972703;28;20058;-58
2022/05/22 05:58:54;;;;;;;5.53;1.55;;;12.60;99.90;;;;;;4971343;28;20053;-57
2022/05/22 06:01:35;;;;;;;3.63;1.10;;;12.70;99.90;;;;;;4971150;28;20051;-57
2022/05/22 06:04:04;;;;;;;4.70;1.20;;;12.70;99.90;;;;;;4959905;28;20047;-57
2022/05/22 06:06:32;;;;;;;3.25;1.00;;;12.70;99.90;;;;;;4953256;29;20789;-57
2022/05/22 06:09:01;;;;;;;3.60;1.00;;;12.80;99.90;;;;;;4968298;28;20093;-57
2022/05/22 06:11:29;;;;;;;3.10;1.40;;;12.90;99.90;;;;;;5010016;28;20608;-57
2022/05/22 06:14:02;;;;;;;4.10;1.38;;;12.90;99.90;;;;;;5010022;28;20482;-57
2022/05/22 06:16:31;;;;;;;2.35;0.80;;;13.00;99.90;;;;;;5009604;28;20041;-57
2022/05/22 06:19:03;;;;;;;4.30;1.20;;;13.00;99.90;;;;;;4995662;28;20061;-57
2022/05/22 06:21:31;;;;;;;5.18;1.00;;;13.00;99.90;;;;;;4987326;28;20053;-57
2022/05/22 06:24:00;;;;;;;5.57;1.27;;;13.10;99.90;;;;;;4998820;28;20237;-57
2022/05/22 06:26:46;;;;;;;4.05;1.45;;;13.10;99.90;;;;;;5007172;28;20061;-57
2022/05/22 06:29:34;;;;;;;1.98;0.82;;;13.20;99.90;;;;;;4957139;28;20054;-56
2022/05/22 06:32:35;;;;;;;8.20;1.67;;;13.20;99.90;;;;;;4976288;28;20507;-56
2022/05/22 06:35:17;;;;;;;5.78;1.30;;;13.30;99.90;;;;;;5010374;28;20054;-56
2022/05/22 06:37:49;;;;;;;5.47;1.67;;;13.40;99.90;;;;;;5009478;28;20410;-57
2022/05/22 06:40:37;;;;;;;8.13;1.52;;;13.50;99.90;;;;;;5008147;28;20061;-56
2022/05/22 06:43:24;;;;;;;4.47;1.30;;;13.50;99.90;;;;;;5010791;28;20509;-56
2022/05/22 06:46:31;;;;;;;7.63;1.92;;;13.50;99.90;;;;;;4950059;29;20051;-57
2022/05/22 06:49:18;;;;;;;5.07;1.00;;;13.50;99.90;;;;;;5012550;28;20042;-57
2022/05/22 06:52:04;;;;;;;6.95;1.77;;;13.60;99.90;;;;;;4992908;28;20069;-57
2022/05/22 06:54:52;;;;;;;5.90;1.48;;;13.60;99.90;;;;;;4999749;28;20045;-57
2022/05/22 06:57:28;;;;;;;2.20;0.88;;;13.70;99.90;;;;;;5009654;28;20077;-56
2022/05/22 07:00:12;;;;;;;4.47;1.23;;;13.70;99.90;;;;;;5009051;28;20073;-57
2022/05/22 07:02:58;;;;;;;7.35;1.55;;;13.70;99.90;;;;;;5007389;28;20481;-57
2022/05/22 07:05:49;;;;;;;3.83;1.20;;;13.70;99.90;;;;;;4986665;28;20062;-56
2022/05/22 07:08:35;;;;;;;5.90;1.35;;;13.70;99.90;;;;;;4986077;28;20054;-56
2022/05/22 07:11:39;;;;;;;4.80;1.10;;;13.80;99.90;;;;;;5010192;28;20042;-57
2022/05/22 07:14:48;;;;;;;1.77;0.90;;;13.90;99.90;;;;;;5004358;28;20058;-56
2022/05/22 07:17:25;;;;;;;;;;;13.90;99.90;;;;;;5009465;28;20049;-57
2022/05/22 07:19:58;;;;;;;4.13;1.23;;;14.00;99.90;;;;;;4994733;28;20293;-57
2022/05/22 07:22:44;;;;;;;3.85;1.20;;;14.00;99.90;;;;;;4990791;28;20050;-57
2022/05/22 07:25:27;;;;;;;8.07;1.45;;;14.00;99.90;;;;;;5009319;28;20041;-57
2022/05/22 07:28:04;;;;;;;4.10;1.25;;;14.10;99.90;;;;;;5010076;28;20053;-57
2022/05/22 07:30:55;;;;;;;3.33;1.17;;;14.20;99.90;;;;;;4972946;28;20064;-57
2022/05/22 07:33:46;;;;;;;5.45;1.25;;;14.30;99.90;;;;;;4977947;28;20069;-57
2022/05/22 07:36:15;;;;;;;3.03;1.30;;;14.30;99.90;;;;;;4990504;28;20038;-55
2022/05/22 07:38:43;;;;;;;3.42;1.02;;;14.40;99.90;;;;;;5004184;28;20038;-57
2022/05/22 07:41:14;;;;;;;5.57;2.08;;;14.40;99.90;;;;;;5010143;28;20500;-56
2022/05/22 07:44:00;;;;;;;4.15;1.08;;;14.40;99.90;;;;;;4992313;28;20050;-57
2022/05/22 07:46:42;;;;;;;6.95;1.45;;;14.40;99.90;;;;;;5008667;28;20056;-57
2022/05/22 07:52:25;;;;;;;7.55;1.63;;;14.60;99.90;;;;;;4989999;28;20057;-57
2022/05/22 07:55:18;;;;;;;7.75;2.15;;;14.70;99.90;;;;;;5007989;28;20401;-58
2022/05/22 07:58:06;;;;;;;6.65;1.20;;;14.90;99.90;;;;;;4995565;28;20045;-57
2022/05/22 08:00:40;;;;;;;4.88;1.20;;;15.10;99.90;;;;;;5008538;28;20532;-57
2022/05/22 08:03:12;;;;;;;2.50;0.93;;;15.20;99.90;;;;;;5009567;28;20042;-58
2022/05/22 08:05:51;;;;;;;2.93;1.00;;;15.30;99.90;;;;;;4993806;28;20061;-57
2022/05/22 08:08:19;;;;;;;2.50;1.10;;;15.40;99.90;;;;;;5003359;28;20041;-58
2022/05/22 08:11:03;;;;;;;4.75;1.15;;;15.40;99.90;;;;;;5012496;28;20062;-58
2022/05/22 08:13:45;;;;;;;7.75;1.20;;;15.50;99.90;;;;;;4995695;28;20050;-57
2022/05/22 08:16:14;;;;;;;7.03;1.25;;;15.50;99.90;;;;;;5012375;28;20042;-58
2022/05/22 08:18:42;;;;;;;6.45;1.13;;;15.50;99.90;;;;;;5011717;28;20425;-58
2022/05/22 08:21:09;;;;;;;2.05;0.80;;;15.50;99.90;;;;;;4976340;28;20061;-58
2022/05/22 08:23:46;;;;;;;4.13;1.08;;;15.50;99.90;;;;;;5011085;28;20403;-58
2022/05/22 08:26:22;;;;;;;6.10;1.10;;;15.50;99.90;;;;;;5032045;28;20046;-58
2022/05/22 08:28:51;;;;;;;4.05;0.75;;;15.50;99.90;;;;;;5015453;28;20048;-57
2022/05/22 08:31:21;;;;;;;;;;;15.50;99.90;;;;;;5032645;28;20038;-58
2022/05/22 08:33:53;;;;;;;2.28;0.70;;;15.60;99.90;;;;;;5029106;28;20380;-58
2022/05/22 08:36:21;;;;;;;1.55;0.77;;;15.50;99.90;;;;;;4992939;28;20038;-58
2022/05/22 08:38:49;;;;;;;1.90;0.80;;;15.50;99.90;;;;;;5007521;28;20057;-58
2022/05/22 08:41:21;;;;;;;1.75;0.63;;;15.50;99.90;;;;;;5013958;28;20498;-58
2022/05/22 08:44:06;;;;;;;4.13;1.23;;;15.50;99.90;;;;;;5013310;28;20059;-57
2022/05/22 08:46:35;;;;;;;1.90;0.80;;;15.50;99.90;;;;;;5011746;28;20528;-57
2022/05/22 08:49:21;;;;;;;3.03;0.80;;;15.50;99.90;;;;;;5011241;28;20054;-58
2022/05/22 08:51:54;;;;;;;3.13;0.88;;;15.60;99.90;;;;;;4993183;28;20049;-58
2022/05/22 08:54:39;;;;;;;2.50;1.17;;;15.60;99.90;;;;;;5007048;28;20053;-57
2022/05/22 09:00:31;;;;;;;3.50;1.02;;;15.80;99.90;;;;;;5012596;28;20037;-57
2022/05/22 09:03:04;;;;;;;;;;;16.00;99.90;;;;;;5010146;28;20410;-58
2022/05/22 09:05:33;;;;;;;1.35;0.80;;;15.90;99.90;;;;;;4997466;28;19932;-57
2022/05/22 09:08:02;;;;;;;1.92;0.80;;;16.30;99.90;;;;;;5000670;28;20382;-58
2022/05/22 09:11:03;;;;;;;5.63;0.80;;;16.40;99.90;;;;;;5012422;28;20064;-58
2022/05/22 09:13:36;;;;;;;4.20;0.52;;;16.50;99.90;;;;;;5012367;28;20299;-56
2022/05/22 09:16:21;;;;;;;2.80;0.73;;;16.70;99.90;;;;;;5011203;28;20050;-57
2022/05/22 09:19:15;;;;;;;3.03;0.88;;;16.90;99.90;;;;;;5012414;28;20052;-58
2022/05/22 09:22:04;;;;;;;4.25;1.20;;;17.10;99.90;;;;;;4988670;28;20490;-56
2022/05/22 09:25:14;;;;;;;5.75;1.10;;;17.30;99.90;;;;;;4990256;28;20417;-58
2022/05/22 09:28:07;;;;;;;1.60;0.88;;;17.50;99.90;;;;;;5011433;28;20062;-58
2022/05/22 09:31:00;;;;;;;2.20;0.80;;;17.60;99.90;;;;;;5012181;28;20042;-57
2022/05/22 09:33:37;;;;;;;2.55;0.60;;;17.70;99.90;;;;;;5011882;28;20397;-57
2022/05/22 09:36:27;;;;;;;4.03;1.80;;;17.70;99.90;;;;;;4997432;28;20038;-57
2022/05/22 09:39:17;;;;;;;3.75;1.20;;;17.80;99.90;;;;;;5009870;28;20386;-58
2022/05/22 09:41:48;;;;;;;0.50;0.50;;;18.00;99.90;;;;;;5011985;28;20061;-58
2022/05/22 09:44:16;;;;;;;1.45;0.35;;;18.10;99.90;;;;;;5011559;28;20054;-58
2022/05/22 09:47:25;;;;;;;0.50;0.30;;;18.10;99.90;;;;;;5011684;28;20042;-58
2022/05/22 09:50:09;;;;;;;4.07;0.70;;;18.00;99.90;;;;;;5007523;28;20042;-58
2022/05/22 09:52:50;;;;;;;2.30;0.70;;;17.90;99.90;;;;;;4992265;28;20498;-58
2022/05/22 09:55:29;;;;;;;4.75;1.02;;;17.90;99.90;;;;;;4992168;28;20510;-58
2022/05/22 09:58:25;;;;;;;3.10;0.80;;;17.90;99.90;;;;;;4999357;28;20371;-57
2022/05/22 10:01:10;;;;;;;1.77;0.80;;;17.90;99.90;;;;;;5010377;28;20054;-58
2022/05/22 10:03:43;;;;;;;1.70;0.68;;;17.80;99.90;;;;;;5010193;28;20053;-58
2022/05/22 10:06:36;;;;;;;2.50;0.70;;;18.00;99.90;;;;;;4996379;28;20520;-58
2022/05/22 10:09:33;;;;;;;1.67;0.50;;;18.10;99.90;;;;;;5007882;28;20045;-57
2022/05/22 10:12:26;;;;;;;2.63;0.70;;;18.30;99.90;;;;;;5011476;28;20038;-58
2022/05/22 10:15:15;;;;;;;1.80;0.50;;;18.60;99.90;;;;;;5011267;28;20042;-58
2022/05/22 10:17:53;;;;;;;0.50;0.40;;;18.90;99.90;;;;;;5011332;28;20655;-62
2022/05/22 10:20:43;;;;;;;1.08;0.38;;;19.10;99.90;;;;;;5004493;28;20421;-57
2022/05/22 10:23:30;;;;;;;1.10;0.30;;;19.30;99.90;;;;;;4995251;28;20405;-58
2022/05/22 10:26:05;;;;;;;1.70;0.30;;;19.30;99.90;;;;;;5010933;28;20046;-57
2022/05/22 10:28:46;;;;;;;1.40;0.50;;;19.30;99.90;;;;;;5011232;28;20489;-57
2022/05/22 10:31:19;;;;;;;2.38;0.38;;;19.20;99.90;;;;;;5009985;28;20473;-58
2022/05/22 10:33:58;;;;;;;0.95;0.40;;;19.20;99.90;;;;;;5009512;28;20054;-58
2022/05/22 10:36:32;;;;;;;1.85;0.57;;;19.20;99.90;;;;;;4996624;28;20521;-58
2022/05/22 10:39:09;;;;;;;1.50;0.60;;;19.30;99.90;;;;;;5007062;28;20061;-58
2022/05/22 10:44:47;;;;;;;0.70;0.50;;;19.50;99.90;;;;;;5010480;28;20050;-57
2022/05/22 10:47:29;;;;;;;0.77;0.50;;;19.40;99.90;;;;;;5009445;28;20060;-57
2022/05/22 10:49:59;;;;;;;0.95;0.40;;;19.50;99.90;;;;;;5008975;28;20049;-58
2022/05/22 10:52:34;;;;;;;0.80;0.38;;;19.50;99.90;;;;;;4989912;28;20387;-58
2022/05/22 10:55:14;;;;;;;1.35;0.30;;;19.50;99.90;;;;;;5009533;28;20049;-57
2022/05/22 10:57:54;;;;;;;0.40;0.32;;;19.50;99.90;;;;;;5010676;28;20065;-58
2022/05/22 11:00:22;;;;;;;1.88;0.30;;;19.60;99.90;;;;;;5010415;28;20054;-58
2022/05/22 11:02:50;;;;;;;0.82;0.35;;;19.60;99.90;;;;;;5010474;28;20053;-58
2022/05/22 11:05:26;;;;;;;3.58;0.63;;;19.60;99.90;;;;;;5007175;28;20038;-57
2022/05/22 11:07:56;;;;;;;1.30;0.60;;;19.50;99.90;;;;;;4997459;28;20046;-58
2022/05/22 11:10:40;;;;;;;0.65;0.40;;;19.50;99.90;;;;;;5008888;28;20061;-58
2022/05/22 11:13:11;;;;;;;0.40;0.40;;;19.50;99.90;;;;;;5010571;28;20052;-58
2022/05/22 11:15:42;;;;;;;2.85;0.70;;;19.60;99.90;;;;;;5010346;28;20050;-58
2022/05/22 11:18:22;;;;;;;7.43;1.10;;;19.80;99.90;;;;;;5010092;28;20042;-57
2022/05/22 11:20:54;;;;;;;1.60;0.80;;;19.70;99.90;;;;;;5003046;28;20057;-58
2022/05/22 11:23:25;;;;;;;2.90;0.90;;;19.70;99.90;;;;;;4994225;28;20442;-58
2022/05/22 11:26:29;;;;;;;1.05;0.80;;;19.60;99.90;;;;;;5010489;28;20045;-58
2022/05/22 11:29:20;;;;;;;2.30;1.30;;;19.80;99.90;;;;;;5007187;28;20490;-57
2022/05/22 11:32:08;;;;;;;2.92;1.00;;;20.10;99.90;;;;;;5007351;28;20049;-58
2022/05/22 11:35:13;;;;;;;1.02;0.60;;;20.40;99.90;;;;;;5006915;28;20042;-57
2022/05/22 11:38:02;;;;;;;3.53;1.52;;;20.60;99.90;;;;;;4991130;28;20046;-58
2022/05/22 11:40:59;;;;;;;2.20;1.50;;;20.80;99.90;;;;;;5006696;28;20068;-58
2022/05/22 11:43:41;;;;;;;3.72;1.60;;;20.90;99.90;;;;;;5006756;28;20046;-59
2022/05/22 11:46:11;;;;;;;5.07;1.48;;;21.00;99.90;;;;;;5006902;28;20042;-58
2022/05/22 11:48:42;;;;;;;1.40;1.30;;;21.20;99.90;;;;;;4989132;28;20054;-58
2022/05/22 11:51:37;;;;;;;2.10;1.40;;;21.30;99.90;;;;;;4999435;28;20047;-58
2022/05/22 11:54:36;;;;;;;1.75;1.45;;;21.10;99.90;;;;;;4997705;28;20046;-58
2022/05/22 11:57:20;;;;;;;2.08;1.40;;;20.80;99.90;;;;;;5005660;28;20057;-58
2022/05/22 11:59:51;;;;;;;2.47;1.58;;;20.80;99.90;;;;;;5007096;28;20535;-58
2022/05/22 12:02:43;;;;;;;2.58;1.50;;;21.00;99.90;;;;;;5007021;28;20058;-58
2022/05/22 12:05:29;;;;;;;2.60;1.63;;;21.40;99.90;;;;;;5005042;28;20056;-58
2022/05/22 12:08:36;;;;;;;2.25;1.40;;;21.80;99.90;;;;;;4993912;28;20057;-58
2022/05/22 12:11:25;;;;;;;1.40;1.27;;;21.60;99.50;;;;;;4986692;28;20058;-58
2022/05/22 12:14:16;;;;;;;8.30;1.77;;;21.30;99.50;;;;;;5006416;28;20042;-58
2022/05/22 12:16:52;;;;;;;2.92;1.60;;;21.20;99.90;;;;;;5006466;28;20049;-57
2022/05/22 12:19:52;;;;;;;3.28;2.58;;;21.30;99.90;;;;;;5006290;28;20052;-58
2022/05/22 12:23:07;;;;;;;2.17;1.70;;;21.30;99.90;;;;;;4986333;28;20062;-58
2022/05/22 12:25:22;;;;;;;3.03;1.70;;;21.10;99.90;;;;;;5005376;28;20045;-57
2022/05/22 12:27:51;;;;;;;4.80;1.90;;;21.10;99.90;;;;;;5006435;28;20560;-58
2022/05/22 12:30:31;;;;;;;4.28;2.20;;;21.30;99.90;;;;;;5006428;28;20073;-57
2022/05/22 12:33:05;;;;;;;4.38;1.88;;;21.60;99.90;;;;;;5006403;28;20540;-58
2022/05/22 12:35:37;;;;;;;2.15;1.67;;;22.00;99.60;;;;;;5006020;28;20068;-57
2022/05/22 12:38:08;;;;;;;3.05;1.55;;;22.10;99.10;;;;;;4994329;28;20395;-58
2022/05/22 12:41:00;;;;;;;2.53;1.45;;;22.00;98.70;;;;;;5005143;28;20481;-58
2022/05/22 12:43:29;;;;;;;3.08;1.60;;;21.90;98.90;;;;;;5006135;28;20053;-57
2022/05/22 12:46:01;;;;;;;3.58;1.92;;;21.70;99.40;;;;;;5004955;28;20502;-58
2022/05/22 12:48:39;;;;;;;2.30;1.58;;;21.70;99.70;;;;;;5004803;28;20046;-57
2022/05/22 12:51:08;;;;;;;3.38;1.30;;;21.70;99.50;;;;;;5005507;28;20039;-58
2022/05/22 12:53:46;;;;;;;1.75;1.30;;;21.70;98.60;;;;;;4995929;28;20053;-58
2022/05/22 12:56:27;;;;;;;2.92;1.77;;;21.70;98.80;;;;;;5009765;28;20046;-57
2022/05/22 12:59:15;;;;;;;5.13;1.75;;;21.70;98.50;;;;;;5008996;28;20054;-58
2022/05/22 13:01:45;;;;;;;3.05;1.40;;;21.70;98.60;;;;;;5009452;28;20054;-58
2022/05/22 13:04:16;;;;;;;6.65;1.60;;;21.60;98.40;;;;;;5008366;28;20510;-58
2022/05/22 13:07:03;;;;;;;3.03;1.50;;;21.50;98.90;;;;;;5001216;28;20564;-58
2022/05/22 13:09:31;;;;;;;3.25;1.42;;;21.30;99.00;;;;;;5024497;28;20417;-58
2022/05/22 13:12:03;;;;;;;2.53;1.00;;;21.00;98.90;;;;;;5009212;28;20060;-58
2022/05/22 13:14:43;;;;;;;1.83;1.20;;;20.80;99.40;;;;;;5009083;28;20045;-58
2022/05/22 13:17:14;;;;;;;2.15;1.20;;;20.60;99.90;;;;;;5007922;28;20049;-57
2022/05/22 13:19:54;;;;;;;2.13;1.27;;;20.40;99.90;;;;;;5008986;28;20493;-58
2022/05/22 13:22:30;;;;;;;5.20;1.33;;;20.20;99.90;;;;;;4996429;28;20588;-58
2022/05/22 13:24:58;;;;;;;2.95;1.02;;;20.00;99.90;;;;;;5006338;28;20049;-58
2022/05/22 13:27:29;;;;;;;3.08;1.27;;;19.70;99.90;;;;;;4991595;28;20045;-58
2022/05/22 13:30:17;;;;;;;1.15;0.90;;;19.50;99.90;;;;;;5009008;28;20482;-58
2022/05/22 13:32:51;;;;;;;1.33;0.80;;;19.40;99.90;;;;;;5008881;28;20049;-58
2022/05/22 13:35:36;;;;;;;1.02;0.90;;;19.40;99.90;;;;;;5008560;28;20490;-58
2022/05/22 13:38:10;;;;;;;4.65;0.90;;;19.40;99.90;;;;;;4999257;28;20049;-58
2022/05/22 13:40:45;;;;;;;1.77;0.80;;;19.70;99.90;;;;;;5007817;28;20042;-58
2022/05/22 13:43:44;;;;;;;2.70;1.10;;;20.20;99.90;;;;;;5007170;28;20053;-58
2022/05/22 13:46:49;;;;;;;3.22;1.13;;;20.80;99.90;;;;;;5008688;28;20042;-58
2022/05/22 13:49:21;;;;;;;6.65;1.20;;;21.50;99.90;;;;;;4987119;28;20537;-58
2022/05/22 13:54:58;;;;;;;2.85;1.35;;;22.80;99.90;;;;;;5008199;28;20045;-58